Warrensburg, MO

11:11 AM CST on December 22, 2014 (GMT -0600)
Downtown | Change Station
CLOSE
Current Station
Personal Weather Station
Location: Warrensburg, MO
Elevation: 856 ft
Nearby Weather Stations

Elev 856 ft 38.76 °N, 93.74 °W | Updated 5 minutes ago

Rain
Rain
45.1 °F
Feels Like 45 °F
N
2.7
Wind Variable Wind from SSE

Today
High -- | Low -- °F
--% Chance of Precip.
Yesterday
High -- | Low -- °F
Precip. -- in
7:30 AM 4:57 PM
New Moon, 1% visible
Pressure 29.57 in
Visibility 7.0 miles
Clouds Mostly Cloudy 1200 ft
Overcast 2100 ft
Windchill 45 °F
Dew Point 41 °F
Humidity 86%
Rainfall 0.00 in
Snow Depth Not available.
UV 1 out of 12
Pollen .10 out of 12
Air Quality Not available.
Flu Activity Not available.
METAR KRCM 221655Z AUTO 15006KT 7SM DZ BKN012 OVC021 07/05 A2957 RMK AO2

More Conditions Fewer Conditions

Pressure 29.57 in
Visibility 7.0 miles
Clouds Mostly Cloudy 1200 ft
Overcast 2100 ft
Windchill 45 °F
Dew Point 41 °F
Humidity 86%
Rainfall 0.00 in
Snow Depth Not available.
UV 1 out of 12
Pollen .10 out of 12
Air Quality Not available.
Flu Activity Not available.
METAR KRCM 221655Z AUTO 15006KT 7SM DZ BKN012 OVC021 07/05 A2957 RMK AO2

More Conditions Fewer Conditions

10-Day Weather Forecast

Almanac

Astronomy

Dec. 22, 2014 Rise Set
Actual Time
Civil Twilight
Nautical Twilight
Astronomical Twilight
Moon
Length of Visible Light
Length of Day
Tomorrow will be .
, % of the Moon is Illuminated

Today's Extremes

State Highs State Lows

Community

WunderPhotos

Upload Photos

1,779,651 photos uploaded!

WunderBlogs® & News

Nearby

Air Quality

  Air Quality AQ Index Pollutant
Not available.

Snow Depth

Station Depth Elevation

Earthquake Activity

City Distance Mag. Time & Date
Minimum magnitude displayed is 2.5.

Coastal Water Temperatures

Place Temperature

Nearby Weather Stations